createdAt,value
2018-05-11T00:00:40.484Z,75.79
2018-05-11T00:01:46.004Z,75.70
2018-05-11T00:02:51.508Z,75.51
2018-05-11T00:03:57.061Z,75.70
2018-05-11T00:05:02.529Z,75.74
2018-05-11T00:06:08.061Z,75.93
2018-05-11T00:07:13.568Z,75.79
2018-05-11T00:08:19.080Z,75.64
2018-05-11T00:09:24.584Z,76.31
2018-05-11T00:10:30.095Z,75.93
2018-05-11T00:11:35.616Z,75.64
2018-05-11T00:12:41.123Z,75.74
2018-05-11T00:13:46.639Z,75.83
2018-05-11T00:14:52.153Z,75.74
2018-05-11T00:15:57.664Z,75.35
2018-05-11T00:17:03.177Z,75.54
2018-05-11T00:18:08.686Z,76.31
2018-05-11T00:19:14.199Z,76.40
2018-05-11T00:20:19.715Z,76.60
2018-05-11T00:21:25.227Z,76.03
2018-05-11T00:22:30.741Z,75.93
2018-05-11T00:23:36.257Z,75.45
2018-05-11T00:24:41.767Z,75.64
2018-05-11T00:25:47.282Z,75.54
2018-05-11T00:26:52.798Z,75.35
2018-05-11T00:27:58.310Z,75.35
2018-05-11T00:29:03.822Z,76.12
2018-05-11T00:30:09.333Z,76.50
2018-05-11T00:31:14.854Z,76.69
2018-05-11T00:32:20.367Z,76.60
2018-05-11T00:33:25.973Z,77.65
2018-05-11T00:34:31.397Z,77.55
2018-05-11T00:35:36.908Z,76.79
2018-05-11T00:36:42.424Z,76.88
2018-05-11T00:37:47.932Z,76.69
2018-05-11T00:38:53.441Z,76.69
2018-05-11T00:39:58.962Z,76.79
2018-05-11T00:41:04.464Z,76.60
2018-05-11T00:42:09.989Z,77.55
2018-05-11T00:43:15.499Z,77.36
2018-05-11T00:44:21.010Z,77.26
2018-05-11T00:45:26.523Z,77.45
2018-05-11T00:46:32.035Z,77.08
2018-05-11T00:47:37.546Z,76.60
2018-05-11T00:48:43.071Z,76.50
2018-05-11T00:49:48.574Z,76.60
2018-05-11T00:50:54.091Z,76.60
2018-05-11T00:51:59.603Z,76.79
2018-05-11T00:53:05.119Z,76.60
2018-05-11T00:54:10.627Z,76.88
2018-05-11T00:55:16.141Z,76.50
2018-05-11T00:56:21.665Z,76.60
2018-05-11T00:57:27.170Z,76.31
2018-05-11T00:58:32.687Z,76.03
2018-05-11T00:59:38.196Z,76.31
2018-05-11T01:00:43.715Z,75.93
2018-05-11T01:01:49.222Z,75.83
2018-05-11T01:02:54.734Z,76.21
2018-05-11T01:04:00.251Z,76.21
2018-05-11T01:05:05.768Z,76.60
2018-05-11T01:06:11.329Z,76.60
2018-05-11T01:07:16.863Z,76.37
2018-05-11T01:08:22.305Z,76.69
2018-05-11T01:09:27.819Z,76.65
2018-05-11T01:10:33.327Z,76.84
2018-05-11T01:11:38.848Z,77.51
2018-05-11T01:12:44.356Z,77.32
2018-05-11T01:13:49.866Z,77.51
2018-05-11T01:14:55.396Z,77.32
2018-05-11T01:16:00.900Z,77.32
2018-05-11T01:17:06.407Z,77.32
2018-05-11T01:18:11.924Z,77.42
2018-05-11T01:19:17.436Z,77.32
2018-05-11T01:20:22.947Z,77.32
2018-05-11T01:21:28.464Z,77.51
2018-05-11T01:22:33.978Z,77.70
2018-05-11T01:23:39.485Z,77.61
2018-05-11T01:24:45.003Z,77.80
2018-05-11T01:25:50.511Z,77.80
2018-05-11T01:26:56.028Z,77.70
2018-05-11T01:28:01.538Z,78.18
2018-05-11T01:29:07.054Z,77.80
2018-05-11T01:30:12.568Z,77.89
2018-05-11T01:31:18.078Z,77.80
2018-05-11T01:32:23.592Z,77.51
2018-05-11T01:33:29.107Z,77.99
2018-05-11T01:34:34.616Z,77.89
2018-05-11T01:35:40.132Z,77.89
2018-05-11T01:36:45.648Z,77.80
2018-05-11T01:37:51.154Z,77.61
2018-05-11T01:38:56.682Z,77.70
2018-05-11T01:40:02.184Z,77.51
2018-05-11T01:41:07.700Z,77.70
2018-05-11T01:42:13.223Z,78.28
2018-05-11T01:43:18.725Z,78.28
2018-05-11T01:44:24.242Z,77.86
2018-05-11T01:45:29.759Z,77.80
2018-05-11T01:46:35.265Z,78.09
2018-05-11T01:47:40.777Z,78.09
2018-05-11T01:48:46.312Z,78.14
2018-05-11T01:49:51.807Z,78.14
2018-05-11T01:50:57.315Z,77.95
2018-05-11T01:52:02.833Z,78.23
2018-05-11T01:53:08.345Z,78.23
2018-05-11T01:54:13.857Z,78.33
2018-05-11T01:55:19.368Z,78.62
2018-05-11T01:56:24.879Z,78.52
2018-05-11T01:57:30.396Z,79.19
2018-05-11T01:58:35.905Z,79.10
2018-05-11T01:59:41.417Z,78.72
2018-05-11T02:00:46.938Z,79.38
2018-05-11T02:01:52.441Z,79.10
2018-05-11T02:02:57.953Z,79.19
2018-05-11T02:04:03.477Z,79.86
2018-05-11T02:05:08.981Z,79.67
2018-05-11T02:06:14.499Z,80.01
2018-05-11T02:07:20.008Z,79.82
2018-05-11T02:08:25.518Z,80.01
2018-05-11T02:09:31.035Z,79.82
2018-05-11T02:10:36.544Z,79.53
2018-05-11T02:11:42.058Z,80.30
2018-05-11T02:12:47.602Z,80.30
2018-05-11T02:13:53.085Z,80.11
2018-05-11T02:14:58.595Z,80.68
2018-05-11T02:16:04.111Z,80.58
2018-05-11T02:17:09.621Z,80.68
2018-05-11T02:18:15.136Z,80.11
2018-05-11T02:19:20.641Z,79.53
2018-05-11T02:20:26.160Z,79.53
2018-05-11T02:21:31.671Z,79.72
2018-05-11T02:22:37.194Z,79.72
2018-05-11T02:23:42.695Z,79.44
2018-05-11T02:24:48.207Z,79.53
2018-05-11T02:25:53.729Z,79.44
2018-05-11T02:26:59.229Z,79.53
2018-05-11T02:28:04.743Z,79.44
2018-05-11T02:29:10.261Z,79.53
2018-05-11T02:30:15.768Z,79.91
2018-05-11T02:31:21.280Z,79.53
2018-05-11T02:32:26.794Z,80.01
2018-05-11T02:33:32.303Z,79.35
2018-05-11T02:34:37.827Z,79.35
2018-05-11T02:35:43.330Z,78.96
2018-05-11T02:36:48.926Z,78.39
2018-05-11T02:37:54.364Z,78.20
2018-05-11T02:38:59.868Z,77.82
2018-05-11T02:40:05.391Z,78.01
2018-05-11T02:41:10.892Z,77.62
2018-05-11T02:42:16.404Z,77.78
2018-05-11T02:43:21.920Z,77.97
2018-05-11T02:44:27.433Z,77.97
2018-05-11T02:45:32.944Z,78.54
2018-05-11T02:46:38.453Z,78.54
2018-05-11T02:47:43.966Z,78.06
2018-05-11T02:48:49.478Z,78.73
2018-05-11T02:49:55.003Z,79.02
2018-05-11T02:51:00.505Z,79.30
2018-05-11T02:52:06.017Z,79.49
2018-05-11T02:53:11.527Z,79.68
2018-05-11T02:54:17.037Z,79.59
2018-05-11T02:55:22.556Z,79.49
2018-05-11T02:56:28.072Z,79.49
2018-05-11T02:57:33.577Z,79.88
2018-05-11T02:58:39.088Z,79.97
2018-05-11T02:59:44.598Z,80.35
2018-05-11T03:00:50.116Z,80.44
2018-05-11T03:01:55.623Z,80.54
2018-05-11T03:03:01.141Z,80.44
2018-05-11T03:04:06.647Z,80.92
2018-05-11T03:05:12.170Z,80.44
2018-05-11T03:06:17.674Z,80.35
2018-05-11T03:07:23.191Z,80.54
2018-05-11T03:08:28.700Z,80.16
2018-05-11T03:09:34.207Z,80.35
2018-05-11T03:10:39.730Z,80.16
2018-05-11T03:11:45.241Z,79.97
2018-05-11T03:12:50.752Z,80.07
2018-05-11T03:13:56.261Z,79.88
2018-05-11T03:15:01.769Z,80.26
2018-05-11T03:16:07.295Z,80.16
2018-05-11T03:17:12.805Z,80.64
2018-05-11T03:18:18.402Z,80.54
2018-05-11T03:19:23.826Z,80.64
2018-05-11T03:20:29.328Z,80.54
2018-05-11T03:21:34.847Z,80.54
2018-05-11T03:22:40.359Z,80.35
2018-05-11T03:23:45.863Z,80.92
2018-05-11T03:24:51.378Z,80.07
2018-05-11T03:25:56.887Z,80.73
2018-05-11T03:27:02.400Z,81.21
2018-05-11T03:28:07.910Z,80.64
2018-05-11T03:29:13.426Z,80.73
2018-05-11T03:30:18.939Z,80.64
2018-05-11T03:31:24.448Z,80.92
2018-05-11T03:32:29.965Z,81.12
2018-05-11T03:33:35.489Z,81.02
2018-05-11T03:34:40.984Z,81.12
2018-05-11T03:35:46.503Z,81.02
2018-05-11T03:36:52.018Z,80.83
2018-05-11T03:37:57.523Z,81.12
2018-05-11T03:39:03.028Z,80.92
2018-05-11T03:40:08.550Z,81.12
2018-05-11T03:41:14.055Z,81.12
2018-05-11T03:42:19.572Z,81.02
2018-05-11T03:43:25.084Z,80.92
2018-05-11T03:44:30.599Z,80.92
2018-05-11T03:45:36.102Z,80.92
2018-05-11T03:46:41.613Z,81.02
2018-05-11T03:47:47.127Z,81.12
2018-05-11T03:48:52.641Z,81.40
2018-05-11T03:49:58.151Z,81.30
2018-05-11T03:51:03.802Z,81.21
2018-05-11T03:52:09.184Z,80.83
2018-05-11T03:53:14.754Z,81.30
2018-05-11T03:54:20.199Z,80.92
2018-05-11T03:55:25.713Z,81.30
2018-05-11T03:56:31.266Z,81.30
2018-05-11T03:57:36.745Z,81.49
2018-05-11T03:58:42.244Z,81.59
2018-05-11T03:59:47.764Z,81.54
2018-05-11T04:00:53.268Z,81.30
2018-05-11T04:01:58.787Z,81.68
2018-05-11T04:03:04.298Z,81.49
2018-05-11T04:04:09.809Z,81.59
2018-05-11T04:05:15.320Z,81.82
2018-05-11T04:06:20.832Z,81.97
2018-05-11T04:07:26.352Z,82.17
2018-05-11T04:08:31.900Z,82.17
2018-05-11T04:09:37.368Z,82.64
2018-05-11T04:10:42.888Z,82.30
2018-05-11T04:11:48.391Z,82.20
2018-05-11T04:12:53.907Z,82.30
2018-05-11T04:13:59.414Z,82.30
2018-05-11T04:15:04.927Z,82.20
2018-05-11T04:16:10.445Z,82.40
2018-05-11T04:17:15.951Z,82.30
2018-05-11T04:18:21.465Z,82.59
2018-05-11T04:19:26.974Z,82.68
2018-05-11T04:20:32.486Z,82.59
2018-05-11T04:21:38.010Z,82.59
2018-05-11T04:22:43.517Z,82.59
2018-05-11T04:23:49.111Z,82.59
2018-05-11T04:24:54.542Z,83.16
2018-05-11T04:26:00.051Z,82.87
2018-05-11T04:27:05.567Z,82.68
2018-05-11T04:28:11.086Z,82.68
2018-05-11T04:29:16.704Z,82.49
2018-05-11T04:30:22.097Z,82.49
2018-05-11T04:31:27.670Z,82.78
2018-05-11T04:32:33.122Z,82.49
2018-05-11T04:33:38.639Z,82.59
2018-05-11T04:34:44.150Z,82.87
2018-05-11T04:35:49.668Z,82.59
2018-05-11T04:36:55.173Z,82.78
2018-05-11T04:38:00.688Z,82.68
2018-05-11T04:39:06.197Z,83.20
2018-05-11T04:40:11.707Z,82.53
2018-05-11T04:41:17.220Z,82.34
2018-05-11T04:42:22.732Z,82.20
2018-05-11T04:43:28.246Z,82.49
2018-05-11T04:44:33.757Z,82.53
2018-05-11T04:45:39.271Z,82.24
2018-05-11T04:46:44.788Z,82.24
2018-05-11T04:47:50.299Z,82.24
2018-05-11T04:48:55.805Z,82.24
2018-05-11T04:50:01.321Z,82.53
2018-05-11T04:51:06.848Z,81.96
2018-05-11T04:52:12.344Z,81.77
2018-05-11T04:53:17.857Z,82.24
2018-05-11T04:54:23.369Z,81.86
2018-05-11T04:55:28.882Z,81.96
2018-05-11T04:56:34.395Z,82.06
2018-05-11T04:57:39.905Z,81.77
2018-05-11T04:58:45.426Z,81.77
2018-05-11T04:59:50.934Z,81.90
2018-05-11T05:00:56.449Z,82.00
2018-05-11T05:02:02.101Z,81.90
2018-05-11T05:03:07.473Z,81.81
2018-05-11T05:04:12.987Z,82.00
2018-05-11T05:05:18.502Z,81.71
2018-05-11T05:06:24.018Z,81.90
2018-05-11T05:07:29.537Z,81.71
2018-05-11T05:08:35.035Z,81.62
2018-05-11T05:09:40.549Z,82.00
2018-05-11T05:10:46.058Z,82.19
2018-05-11T05:11:51.583Z,82.09
2018-05-11T05:12:57.091Z,81.81
2018-05-11T05:14:02.608Z,81.62
2018-05-11T05:15:08.110Z,81.81
2018-05-11T05:16:13.623Z,81.43
2018-05-11T05:17:19.138Z,81.52
2018-05-11T05:18:24.648Z,81.81
2018-05-11T05:19:30.170Z,81.71
2018-05-11T05:20:35.672Z,81.56
2018-05-11T05:21:41.190Z,81.18
2018-05-11T05:22:46.706Z,80.80
2018-05-11T05:23:52.214Z,81.18
2018-05-11T05:24:57.731Z,80.61
2018-05-11T05:26:03.240Z,80.41
2018-05-11T05:27:08.769Z,80.32
2018-05-11T05:28:14.276Z,80.32
2018-05-11T05:29:19.779Z,80.41
2018-05-11T05:30:25.292Z,79.75
2018-05-11T05:31:30.808Z,80.22
2018-05-11T05:32:36.325Z,79.65
2018-05-11T05:33:41.837Z,79.85
2018-05-11T05:34:47.357Z,79.75
2018-05-11T05:35:52.861Z,80.13
2018-05-11T05:36:58.446Z,80.22
2018-05-11T05:38:03.886Z,80.13
2018-05-11T05:39:09.544Z,80.22
2018-05-11T05:40:14.909Z,80.41
2018-05-11T05:41:20.424Z,80.13
2018-05-11T05:42:25.936Z,80.22
2018-05-11T05:43:31.458Z,80.70
2018-05-11T05:44:36.959Z,80.80
2018-05-11T05:45:42.480Z,81.09
2018-05-11T05:46:47.992Z,80.61
2018-05-11T05:47:53.502Z,80.80
2018-05-11T05:48:59.014Z,80.80
2018-05-11T05:50:04.527Z,81.09
2018-05-11T05:51:10.044Z,80.41
2018-05-11T05:52:15.565Z,80.61
2018-05-11T05:53:21.068Z,80.70
2018-05-11T05:54:26.578Z,80.80
2018-05-11T05:55:32.090Z,80.80
2018-05-11T05:56:37.614Z,80.80
2018-05-11T05:57:43.124Z,80.61
2018-05-11T05:58:48.653Z,80.70
2018-05-11T05:59:54.260Z,80.36
2018-05-11T06:00:59.662Z,80.46
2018-05-11T06:02:05.171Z,80.46
2018-05-11T06:03:10.687Z,80.74
2018-05-11T06:04:16.203Z,80.55
2018-05-11T06:05:21.719Z,79.69
2018-05-11T06:06:27.228Z,79.69
2018-05-11T06:07:32.741Z,79.50
2018-05-11T06:08:38.274Z,80.07
2018-05-11T06:09:43.770Z,79.79
2018-05-11T06:10:49.341Z,79.98
2018-05-11T06:11:54.794Z,79.69
2018-05-11T06:13:00.305Z,80.07
2018-05-11T06:14:05.825Z,79.79
2018-05-11T06:15:11.336Z,79.22
2018-05-11T06:16:16.850Z,79.60
2018-05-11T06:17:22.362Z,79.64
2018-05-11T06:18:27.875Z,79.35
2018-05-11T06:19:33.387Z,78.97
2018-05-11T06:20:38.929Z,79.06
2018-05-11T06:21:44.435Z,79.25
2018-05-11T06:22:49.931Z,79.06
2018-05-11T06:23:55.443Z,78.39
2018-05-11T06:25:00.963Z,78.30
2018-05-11T06:26:06.467Z,78.11
2018-05-11T06:27:11.987Z,77.82
2018-05-11T06:28:17.497Z,77.82
2018-05-11T06:29:23.008Z,77.63
2018-05-11T06:30:28.521Z,78.11
2018-05-11T06:31:34.038Z,78.30
2018-05-11T06:32:39.552Z,78.20
2018-05-11T06:33:45.061Z,78.39
2018-05-11T06:34:50.578Z,78.49
2018-05-11T06:35:56.095Z,78.01
2018-05-11T06:37:01.606Z,78.11
2018-05-11T06:38:07.119Z,78.68
2018-05-11T06:39:12.631Z,77.92
2018-05-11T06:40:18.149Z,77.82
2018-05-11T06:41:23.674Z,77.92
2018-05-11T06:42:29.178Z,77.57
2018-05-11T06:43:34.688Z,77.82
2018-05-11T06:44:40.281Z,77.57
2018-05-11T06:45:45.720Z,77.76
2018-05-11T06:46:51.231Z,76.62
2018-05-11T06:47:56.743Z,76.33
2018-05-11T06:49:02.261Z,76.04
2018-05-11T06:50:07.770Z,75.95
2018-05-11T06:51:13.295Z,76.81
2018-05-11T06:52:18.801Z,76.14
2018-05-11T06:53:24.329Z,76.33
2018-05-11T06:54:29.826Z,76.14
2018-05-11T06:55:35.348Z,76.42
2018-05-11T06:56:40.863Z,76.23
2018-05-11T06:57:46.365Z,75.85
2018-05-11T06:58:51.880Z,75.76
2018-05-11T06:59:57.405Z,76.14
2018-05-11T07:01:02.916Z,75.47
2018-05-11T07:02:08.431Z,76.18
2018-05-11T07:03:13.941Z,75.12
2018-05-11T07:04:19.453Z,74.93
2018-05-11T07:05:24.965Z,74.16
2018-05-11T07:06:30.489Z,74.07
2018-05-11T07:07:36.073Z,73.88
2018-05-11T07:08:41.519Z,72.83
2018-05-11T07:09:47.025Z,72.44
2018-05-11T07:10:52.537Z,72.54
2018-05-11T07:11:58.056Z,72.34
2018-05-11T07:13:03.571Z,72.92
2018-05-11T07:14:09.083Z,73.21
2018-05-11T07:15:14.592Z,73.02
2018-05-11T07:16:20.117Z,73.59
2018-05-11T07:17:25.626Z,72.92
2018-05-11T07:18:31.144Z,72.73
2018-05-11T07:19:36.669Z,73.11
2018-05-11T07:20:42.170Z,73.97
2018-05-11T07:21:47.686Z,74.26
2018-05-11T07:22:53.208Z,74.26
2018-05-11T07:23:58.707Z,74.45
2018-05-11T07:25:04.226Z,74.93
2018-05-11T07:26:09.745Z,74.26
2018-05-11T07:27:15.251Z,74.55
2018-05-11T07:28:20.767Z,74.84
2018-05-11T07:29:26.291Z,73.88
2018-05-11T07:30:31.797Z,73.88
2018-05-11T07:31:37.310Z,73.79
2018-05-11T07:32:42.833Z,73.54
2018-05-11T07:33:48.335Z,74.01
2018-05-11T07:34:53.864Z,74.01
2018-05-11T07:35:59.365Z,72.67
2018-05-11T07:37:04.886Z,72.58
2018-05-11T07:38:10.396Z,72.09
2018-05-11T07:39:15.910Z,72.00
2018-05-11T07:40:21.423Z,71.52
2018-05-11T07:41:26.945Z,71.62
2018-05-11T07:42:32.453Z,72.29
2018-05-11T07:43:37.967Z,72.19
2018-05-11T07:44:43.481Z,72.00
2018-05-11T07:45:49.004Z,72.29
2018-05-11T07:46:54.522Z,72.86
2018-05-11T07:48:00.052Z,72.71
2018-05-11T07:49:05.541Z,72.13
2018-05-11T07:50:11.057Z,72.00
2018-05-11T07:51:16.582Z,71.75
2018-05-11T07:52:22.086Z,71.17
2018-05-11T07:53:27.609Z,70.12
2018-05-11T07:54:33.114Z,69.51
2018-05-11T07:55:38.633Z,69.26
2018-05-11T07:56:44.144Z,68.97
2018-05-11T07:57:49.660Z,68.21
2018-05-11T07:58:55.179Z,68.07
2018-05-11T08:00:00.692Z,68.78
2018-05-11T08:01:06.204Z,68.30
2018-05-11T08:02:11.724Z,68.01
2018-05-11T08:03:17.231Z,68.11
2018-05-11T08:04:22.754Z,67.91
2018-05-11T08:05:28.264Z,68.21
2018-05-11T08:06:33.775Z,67.82
2018-05-11T08:07:39.296Z,67.91
2018-05-11T08:08:44.805Z,68.14
2018-05-11T08:09:50.330Z,67.09
2018-05-11T08:10:55.836Z,67.95
2018-05-11T08:12:01.360Z,67.57
2018-05-11T08:13:06.875Z,67.47
2018-05-11T08:14:12.415Z,66.71
2018-05-11T08:15:17.898Z,66.99
2018-05-11T08:16:23.413Z,66.99
2018-05-11T08:17:28.927Z,66.51
2018-05-11T08:18:34.442Z,67.66
2018-05-11T08:19:39.956Z,67.09
2018-05-11T08:20:45.478Z,67.38
2018-05-11T08:21:50.991Z,67.38
2018-05-11T08:22:56.517Z,67.85
2018-05-11T08:24:02.026Z,66.71
2018-05-11T08:25:07.536Z,65.55
2018-05-11T08:26:13.048Z,65.65
2018-05-11T08:27:18.567Z,65.49
2018-05-11T08:28:24.210Z,66.06
2018-05-11T08:29:29.608Z,66.45
2018-05-11T08:30:35.109Z,66.35
2018-05-11T08:31:40.628Z,65.49
2018-05-11T08:32:46.147Z,65.59
2018-05-11T08:33:51.660Z,64.82
2018-05-11T08:34:57.177Z,65.39
2018-05-11T08:36:02.689Z,65.30
2018-05-11T08:37:08.202Z,63.76
2018-05-11T08:38:13.727Z,63.48
2018-05-11T08:39:19.240Z,63.86
2018-05-11T08:40:24.758Z,64.15
2018-05-11T08:41:30.266Z,65.05
2018-05-11T08:42:35.783Z,65.11
2018-05-11T08:43:41.303Z,64.56
2018-05-11T08:44:46.829Z,64.56
2018-05-11T08:45:52.328Z,64.76
2018-05-11T08:46:57.851Z,64.85
2018-05-11T08:48:03.365Z,64.18
2018-05-11T08:49:08.875Z,63.03
2018-05-11T08:50:14.396Z,62.36
2018-05-11T08:51:19.907Z,62.84
2018-05-11T08:52:25.427Z,62.84
2018-05-11T08:53:30.941Z,62.16
2018-05-11T08:54:36.457Z,63.22
2018-05-11T08:55:41.973Z,62.65
2018-05-11T08:56:47.495Z,62.07
2018-05-11T08:57:53.004Z,61.98
2018-05-11T08:58:58.523Z,62.26
2018-05-11T09:00:04.043Z,61.88
2018-05-11T09:01:09.625Z,61.78
2018-05-11T09:02:15.064Z,62.65
2018-05-11T09:03:20.578Z,62.74
2018-05-11T09:04:26.095Z,61.98
2018-05-11T09:05:31.612Z,61.49
2018-05-11T09:06:37.137Z,61.40
2018-05-11T09:07:42.642Z,61.49
2018-05-11T09:08:48.161Z,62.36
2018-05-11T09:09:53.674Z,62.55
2018-05-11T09:10:59.187Z,62.29
2018-05-11T09:12:04.707Z,61.81
2018-05-11T09:13:10.221Z,61.33
2018-05-11T09:14:15.760Z,62.77
2018-05-11T09:15:21.254Z,61.40
2018-05-11T09:16:26.775Z,60.47
2018-05-11T09:17:32.284Z,61.62
2018-05-11T09:18:37.800Z,61.43
2018-05-11T09:19:43.315Z,61.05
2018-05-11T09:20:48.834Z,60.85
2018-05-11T09:21:54.350Z,61.33
2018-05-11T09:22:59.877Z,61.49
2018-05-11T09:24:05.379Z,61.02
2018-05-11T09:25:10.897Z,61.33
2018-05-11T09:26:16.413Z,61.05
2018-05-11T09:27:21.929Z,60.38
2018-05-11T09:28:27.455Z,59.89
2018-05-11T09:29:32.962Z,59.99
2018-05-11T09:30:38.491Z,58.74
2018-05-11T09:31:44.060Z,59.22
2018-05-11T09:32:49.515Z,58.94
2018-05-11T09:33:55.042Z,59.51
2018-05-11T09:35:00.540Z,59.41
2018-05-11T09:36:06.060Z,58.64
2018-05-11T09:37:11.637Z,58.64
2018-05-11T09:38:17.091Z,59.51
2018-05-11T09:39:22.628Z,59.41
2018-05-11T09:40:28.122Z,59.22
2018-05-11T09:41:33.635Z,59.22
2018-05-11T09:42:39.158Z,59.92
2018-05-11T09:43:44.670Z,60.60
2018-05-11T09:44:50.195Z,58.67
2018-05-11T09:45:55.706Z,58.00
2018-05-11T09:47:01.217Z,58.10
2018-05-11T09:48:06.735Z,58.48
2018-05-11T09:49:12.283Z,59.83
2018-05-11T09:50:17.773Z,60.31
2018-05-11T09:51:23.305Z,60.69
2018-05-11T09:52:28.876Z,60.63
2018-05-11T09:53:34.321Z,61.11
2018-05-11T09:54:39.855Z,60.24
2018-05-11T09:55:45.348Z,59.86
2018-05-11T09:56:50.865Z,59.57
2018-05-11T09:57:56.378Z,58.70
2018-05-11T09:59:01.908Z,59.66
2018-05-11T10:00:07.417Z,59.12
2018-05-11T10:01:12.929Z,59.31
2018-05-11T10:02:18.452Z,58.25
2018-05-11T10:03:23.963Z,57.00
2018-05-11T10:04:29.521Z,57.77
2018-05-11T10:05:34.993Z,58.64
2018-05-11T10:06:40.519Z,57.00
2018-05-11T10:07:46.074Z,58.06
2018-05-11T10:08:51.560Z,57.29
2018-05-11T10:09:57.072Z,57.00
2018-05-11T10:11:02.577Z,57.58
2018-05-11T10:12:08.119Z,57.99
2018-05-11T10:13:13.612Z,55.94
2018-05-11T10:14:19.188Z,57.42
2018-05-11T10:15:24.645Z,56.45
2018-05-11T10:16:30.169Z,55.98
2018-05-11T10:17:35.680Z,55.11
2018-05-11T10:18:41.206Z,54.53
2018-05-11T10:19:46.721Z,55.88
2018-05-11T10:20:52.279Z,56.93
2018-05-11T10:21:57.756Z,56.74
2018-05-11T10:23:03.266Z,55.78
2018-05-11T10:24:08.874Z,55.30
2018-05-11T10:25:14.324Z,55.13
2018-05-11T10:26:19.822Z,54.72
2018-05-11T10:27:25.343Z,54.08
2018-05-11T10:28:30.847Z,54.53
2018-05-11T10:29:36.367Z,53.96
2018-05-11T10:30:41.883Z,55.13
2018-05-11T10:31:47.401Z,54.94
2018-05-11T10:32:52.925Z,54.56
2018-05-11T10:33:58.432Z,53.98
2018-05-11T10:35:03.968Z,54.46
2018-05-11T10:36:09.477Z,55.33
2018-05-11T10:37:14.984Z,56.20
2018-05-11T10:38:20.507Z,55.23
2018-05-11T10:39:26.020Z,53.88
2018-05-11T10:40:31.557Z,54.17
2018-05-11T10:41:37.055Z,55.04
2018-05-11T10:42:42.608Z,54.85
2018-05-11T10:43:48.089Z,53.98
2018-05-11T10:44:53.612Z,54.27
2018-05-11T10:45:59.125Z,54.17
2018-05-11T10:47:04.647Z,54.27
2018-05-11T10:48:10.169Z,53.98
2018-05-11T10:49:15.677Z,55.35
2018-05-11T10:50:21.192Z,55.16
2018-05-11T10:51:26.717Z,55.35
2018-05-11T10:52:32.233Z,55.09
2018-05-11T10:53:37.755Z,54.87
2018-05-11T10:54:43.263Z,54.61
2018-05-11T10:55:48.797Z,55.00
2018-05-11T10:56:54.308Z,54.61
2018-05-11T10:57:59.825Z,54.22
2018-05-11T10:59:05.336Z,52.78
2018-05-11T11:00:10.849Z,52.01
2018-05-11T11:01:16.372Z,51.34
2018-05-11T11:02:21.948Z,51.72
2018-05-11T11:03:27.405Z,51.53
2018-05-11T11:04:32.924Z,52.11
2018-05-11T11:05:38.437Z,52.01
2018-05-11T11:06:43.963Z,51.92
2018-05-11T11:07:49.551Z,52.04
2018-05-11T11:08:54.993Z,51.94
2018-05-11T11:10:00.534Z,51.17
2018-05-11T11:11:06.036Z,51.94
2018-05-11T11:12:11.562Z,52.23
2018-05-11T11:13:17.066Z,52.23
2018-05-11T11:14:22.602Z,51.94
2018-05-11T11:15:28.101Z,50.88
2018-05-11T11:16:33.617Z,50.69
2018-05-11T11:17:39.135Z,50.30
2018-05-11T11:18:44.653Z,50.40
2018-05-11T11:19:50.270Z,50.30
2018-05-11T11:20:55.695Z,50.21
2018-05-11T11:22:01.219Z,51.46
2018-05-11T11:23:06.727Z,52.33
2018-05-11T11:24:12.247Z,52.04
2018-05-11T11:25:17.771Z,50.78
2018-05-11T11:26:23.289Z,49.82
2018-05-11T11:27:28.798Z,49.24
2018-05-11T11:28:34.318Z,49.53
2018-05-11T11:29:39.836Z,49.05
2018-05-11T11:30:45.361Z,49.73
2018-05-11T11:31:50.885Z,50.40
2018-05-11T11:32:56.428Z,49.73
2018-05-11T11:34:01.911Z,49.91
2018-05-11T11:35:07.515Z,50.69
2018-05-11T11:36:12.981Z,50.23
2018-05-11T11:37:18.503Z,52.16
2018-05-11T11:38:24.001Z,51.87
2018-05-11T11:39:29.511Z,49.07
2018-05-11T11:40:35.021Z,49.77
2018-05-11T11:41:40.533Z,48.61
2018-05-11T11:42:46.054Z,49.29
2018-05-11T11:43:51.574Z,49.48
2018-05-11T11:44:57.091Z,49.96
2018-05-11T11:46:02.605Z,49.87
2018-05-11T11:47:08.127Z,50.16
2018-05-11T11:48:13.649Z,48.90
2018-05-11T11:49:19.176Z,47.75
2018-05-11T11:50:24.688Z,47.17
2018-05-11T11:51:30.210Z,46.88
2018-05-11T11:52:35.719Z,46.69
2018-05-11T11:53:41.240Z,46.59
2018-05-11T11:54:46.755Z,46.78
2018-05-11T11:55:52.280Z,47.55
2018-05-11T11:56:57.793Z,47.55
2018-05-11T11:58:03.313Z,48.13
2018-05-11T11:59:08.832Z,47.36
2018-05-11T12:00:14.454Z,47.27
2018-05-11T12:01:19.867Z,47.87
2018-05-11T12:02:25.387Z,47.09
2018-05-11T12:03:30.914Z,47.09
2018-05-11T12:04:36.558Z,47.29
2018-05-11T12:05:41.943Z,47.38
2018-05-11T12:06:47.467Z,46.23
2018-05-11T12:07:53.005Z,46.23
2018-05-11T12:08:58.587Z,47.00
2018-05-11T12:10:04.028Z,47.67
2018-05-11T12:11:09.551Z,46.90
2018-05-11T12:12:15.059Z,45.84
2018-05-11T12:13:20.573Z,47.12
2018-05-11T12:14:26.103Z,47.50
2018-05-11T12:15:31.613Z,48.18
2018-05-11T12:16:37.135Z,47.31
2018-05-11T12:17:42.656Z,46.06
2018-05-11T12:18:48.173Z,45.01
2018-05-11T12:19:53.695Z,44.73
2018-05-11T12:20:59.222Z,44.24
2018-05-11T12:22:04.741Z,42.02
2018-05-11T12:23:10.251Z,42.70
2018-05-11T12:24:15.772Z,42.79
2018-05-11T12:25:21.286Z,42.60
2018-05-11T12:26:26.838Z,42.99
2018-05-11T12:27:32.343Z,42.89
2018-05-11T12:28:37.845Z,43.76
2018-05-11T12:29:43.365Z,44.24
2018-05-11T12:30:48.881Z,44.24
2018-05-11T12:31:54.411Z,44.73
2018-05-11T12:32:59.951Z,44.07
2018-05-11T12:34:05.451Z,42.99
2018-05-11T12:35:10.969Z,43.08
2018-05-11T12:36:16.481Z,43.68
2018-05-11T12:37:22.004Z,42.21
2018-05-11T12:38:27.518Z,41.54
2018-05-11T12:39:33.055Z,42.41
2018-05-11T12:40:38.562Z,42.02
2018-05-11T12:41:44.086Z,42.58
2018-05-11T12:42:49.595Z,41.61
2018-05-11T12:43:55.118Z,42.10
2018-05-11T12:45:00.646Z,42.97
2018-05-11T12:46:06.161Z,43.84
2018-05-11T12:47:11.698Z,43.64
2018-05-11T12:48:17.203Z,42.85
2018-05-11T12:49:22.713Z,42.46
2018-05-11T12:50:28.230Z,42.85
2018-05-11T12:51:33.750Z,45.07
2018-05-11T12:52:39.271Z,43.91
2018-05-11T12:53:44.789Z,42.18
2018-05-11T12:54:50.308Z,42.75
2018-05-11T12:55:55.826Z,44.01
2018-05-11T12:57:01.348Z,44.29
2018-05-11T12:58:06.872Z,44.29
2018-05-11T12:59:12.392Z,44.01
2018-05-11T13:00:17.959Z,44.08
2018-05-11T13:01:23.433Z,44.08
2018-05-11T13:02:28.945Z,44.18
2018-05-11T13:03:34.467Z,44.56
2018-05-11T13:04:39.982Z,44.08
2018-05-11T13:05:45.517Z,44.56
2018-05-11T13:06:51.021Z,45.72
2018-05-11T13:07:56.538Z,45.53
2018-05-11T13:09:02.080Z,46.49
2018-05-11T13:10:07.578Z,46.69
2018-05-11T13:11:13.096Z,46.59
2018-05-11T13:12:18.618Z,45.62
2018-05-11T13:13:24.135Z,46.40
2018-05-11T13:14:29.652Z,46.59
2018-05-11T13:15:35.189Z,47.36
2018-05-11T13:17:04.553Z,46.97
2018-05-11T13:30:00.202Z,46.59
2018-05-11T13:31:05.717Z,46.59
2018-05-11T13:33:04.328Z,45.84
2018-05-11T13:34:09.827Z,44.97
2018-05-11T13:36:08.333Z,45.84
2018-05-11T13:37:13.846Z,45.94
2018-05-11T13:39:12.403Z,44.78
2018-05-11T13:40:17.856Z,44.59
2018-05-11T13:42:16.371Z,43.62
2018-05-11T13:43:21.876Z,44.39
2018-05-11T13:45:20.377Z,46.33
2018-05-11T13:46:25.889Z,46.40
2018-05-11T13:48:24.555Z,46.40
2018-05-11T13:49:29.899Z,46.78
2018-05-11T13:51:28.436Z,45.82
2018-05-11T13:52:33.915Z,45.62
2018-05-11T13:54:32.438Z,46.97
2018-05-11T13:55:37.931Z,47.36
2018-05-11T13:57:36.435Z,44.37
2018-05-11T13:58:41.947Z,45.43
2018-05-11T14:00:40.563Z,45.53
2018-05-11T14:01:46.089Z,45.04
2018-05-11T14:03:44.596Z,45.26
2018-05-11T14:04:50.075Z,45.75
2018-05-11T14:06:48.599Z,45.17
2018-05-11T14:07:54.090Z,44.68
2018-05-11T14:09:52.617Z,44.49
2018-05-11T14:10:58.165Z,44.59
2018-05-11T14:12:56.616Z,44.39
2018-05-11T14:14:02.120Z,44.97
2018-05-11T14:16:00.652Z,44.78
2018-05-11T14:17:06.134Z,43.91
2018-05-11T14:19:04.668Z,43.33
2018-05-11T14:20:10.155Z,42.56
2018-05-11T14:22:08.655Z,42.85
2018-05-11T14:23:14.165Z,43.14
2018-05-11T14:25:12.715Z,43.04
2018-05-11T14:26:18.177Z,43.91
2018-05-11T14:28:16.683Z,43.43
2018-05-11T14:29:22.195Z,44.01
2018-05-11T14:31:20.710Z,44.20
2018-05-11T14:32:26.214Z,44.87
2018-05-11T14:34:24.725Z,45.55